DLH79 EDDF-LPPT
Flight info
| Callsign | DLH79 |
|---|---|
| Flight time | N/A |
| Altitude | 38000 |
| Route | SOBRA2L/18 SOBRA Y180 DIK UN857 TOLVU/N0482F390 DCT RAPOR DCT GIMER/N0487F350 DCT ESTOC UT300 PON UN872 GODIX/N0500F310 UN872 DIDAK/N0486F410 UN872 TERPO/N0490F350 UN872 ERIGA UZ218 FUJTI/N0486F410 DCT ATLEN DCT ABUPI DCT XAMAX |
| Aircraft | A359/H-SDE2E3GHIJ3J4J5LM1ORWXY/LB1D1 |
Departure
| Time | N/A |
|---|---|
| Airport | Frankfurt Main Airport (EDDF) |
Arrival
| Time | 2026-04-27 15:51 |
|---|---|
| Airport | Lisbon Humberto Delgado Airport (LPPT) |
| Time | Latitude | Longitude | Altitude | Speed | Heading |
|---|---|---|---|---|---|
| 2026-04-27 14:12 | 46.75022 | -2.45939 | 40181 ft | 469 kts | 212° |
| 2026-04-27 14:12 | 46.69415 | -2.50840 | 40182 ft | 471 kts | 212° |
| 2026-04-27 14:13 | 46.63798 | -2.55740 | 40182 ft | 471 kts | 212° |
| 2026-04-27 14:13 | 46.58175 | -2.60632 | 40184 ft | 471 kts | 212° |
| 2026-04-27 14:14 | 46.52590 | -2.65480 | 40178 ft | 471 kts | 212° |
| 2026-04-27 14:14 | 46.46979 | -2.70338 | 40183 ft | 469 kts | 212° |
| 2026-04-27 14:15 | 46.41378 | -2.75176 | 40185 ft | 469 kts | 212° |
| 2026-04-27 14:15 | 46.35775 | -2.80005 | 40184 ft | 469 kts | 212° |
| 2026-04-27 14:16 | 46.30164 | -2.84829 | 40182 ft | 470 kts | 212° |
| 2026-04-27 14:16 | 46.24793 | -2.90172 | 40175 ft | 468 kts | 220° |
| 2026-04-27 14:17 | 46.19769 | -2.96170 | 40173 ft | 468 kts | 221° |
| 2026-04-27 14:17 | 46.14807 | -3.02256 | 40174 ft | 468 kts | 221° |
| 2026-04-27 14:18 | 46.09843 | -3.08333 | 40183 ft | 467 kts | 221° |
| 2026-04-27 14:18 | 46.04893 | -3.14354 | 40183 ft | 465 kts | 221° |
| 2026-04-27 14:19 | 45.99934 | -3.20359 | 40171 ft | 466 kts | 221° |
| 2026-04-27 14:19 | 45.94958 | -3.26369 | 40171 ft | 468 kts | 221° |
| 2026-04-27 14:20 | 45.89975 | -3.32371 | 40180 ft | 467 kts | 221° |
| 2026-04-27 14:20 | 45.84999 | -3.38351 | 40179 ft | 466 kts | 221° |
| 2026-04-27 14:21 | 45.80025 | -3.44316 | 40179 ft | 466 kts | 221° |
| 2026-04-27 14:21 | 45.75045 | -3.50273 | 40179 ft | 466 kts | 221° |
| 2026-04-27 14:22 | 45.70064 | -3.56217 | 40177 ft | 466 kts | 221° |
| 2026-04-27 14:22 | 45.65083 | -3.62147 | 40178 ft | 465 kts | 221° |
| 2026-04-27 14:23 | 45.60107 | -3.68056 | 40179 ft | 465 kts | 221° |
| 2026-04-27 14:23 | 45.55131 | -3.73952 | 40179 ft | 465 kts | 221° |
| 2026-04-27 14:24 | 45.50181 | -3.79802 | 40175 ft | 465 kts | 221° |
| 2026-04-27 14:24 | 45.45206 | -3.85668 | 40178 ft | 464 kts | 221° |
| 2026-04-27 14:25 | 45.40233 | -3.91519 | 40180 ft | 464 kts | 221° |
| 2026-04-27 14:25 | 45.35246 | -3.97373 | 40178 ft | 465 kts | 221° |
| 2026-04-27 14:26 | 45.30253 | -4.03219 | 40163 ft | 465 kts | 221° |
| 2026-04-27 14:26 | 45.25270 | -4.09038 | 40173 ft | 463 kts | 221° |
| 2026-04-27 14:27 | 45.20295 | -4.14836 | 40173 ft | 463 kts | 221° |
| 2026-04-27 14:27 | 45.15320 | -4.20621 | 40173 ft | 463 kts | 221° |
| 2026-04-27 14:28 | 45.10337 | -4.26401 | 40166 ft | 463 kts | 221° |
| 2026-04-27 14:28 | 45.05357 | -4.32163 | 40170 ft | 462 kts | 221° |
| 2026-04-27 14:29 | 45.00383 | -4.37906 | 40170 ft | 462 kts | 221° |
| 2026-04-27 14:29 | 44.95410 | -4.43635 | 40170 ft | 461 kts | 220° |
| 2026-04-27 14:30 | 44.90431 | -4.49358 | 40157 ft | 461 kts | 221° |
| 2026-04-27 14:30 | 44.85456 | -4.55061 | 40167 ft | 460 kts | 221° |
| 2026-04-27 14:31 | 44.80517 | -4.60711 | 40169 ft | 460 kts | 220° |
| 2026-04-27 14:31 | 44.75540 | -4.66392 | 40167 ft | 461 kts | 220° |
| 2026-04-27 14:32 | 44.70560 | -4.72064 | 40162 ft | 461 kts | 220° |
| 2026-04-27 14:32 | 44.65576 | -4.77726 | 40165 ft | 461 kts | 220° |
| 2026-04-27 14:33 | 44.60585 | -4.83383 | 40165 ft | 461 kts | 220° |
| 2026-04-27 14:33 | 44.55593 | -4.89030 | 40165 ft | 461 kts | 220° |
| 2026-04-27 14:34 | 44.50545 | -4.94577 | 40147 ft | 462 kts | 216° |
| 2026-04-27 14:34 | 44.45158 | -4.99486 | 40160 ft | 462 kts | 214° |
| 2026-04-27 14:35 | 44.39698 | -5.04262 | 40159 ft | 463 kts | 214° |
| 2026-04-27 14:35 | 44.34224 | -5.09011 | 40246 ft | 463 kts | 214° |
| 2026-04-27 14:36 | 44.29674 | -5.12958 | 40470 ft | 464 kts | 214° |
| 2026-04-27 14:36 | 44.26936 | -5.15334 | 40617 ft | 464 kts | 214° |
| 2026-04-27 14:36 | 44.24192 | -5.17715 | 40722 ft | 464 kts | 214° |
| 2026-04-27 14:36 | 44.21451 | -5.20093 | 40843 ft | 465 kts | 214° |
| 2026-04-27 14:37 | 44.18896 | -5.22306 | 40935 ft | 465 kts | 214° |
| 2026-04-27 14:37 | 44.15843 | -5.24948 | 41064 ft | 466 kts | 214° |
| 2026-04-27 14:37 | 44.13088 | -5.27330 | 41146 ft | 466 kts | 214° |
| 2026-04-27 14:38 | 44.07571 | -5.32089 | 41155 ft | 466 kts | 214° |
| 2026-04-27 14:38 | 44.02117 | -5.36785 | 41156 ft | 466 kts | 214° |
| 2026-04-27 14:39 | 43.96602 | -5.41522 | 41154 ft | 466 kts | 213° |
| 2026-04-27 14:39 | 43.91085 | -5.46250 | 41153 ft | 466 kts | 213° |
| 2026-04-27 14:40 | 43.85858 | -5.50719 | 41150 ft | 466 kts | 214° |
| 2026-04-27 14:40 | 43.80390 | -5.55386 | 41148 ft | 465 kts | 214° |
| 2026-04-27 14:41 | 43.74876 | -5.60082 | 41150 ft | 465 kts | 214° |
| 2026-04-27 14:41 | 43.69483 | -5.64664 | 41146 ft | 465 kts | 214° |
| 2026-04-27 14:42 | 43.64026 | -5.69290 | 41146 ft | 466 kts | 214° |
| 2026-04-27 14:42 | 43.58613 | -5.73870 | 41151 ft | 466 kts | 213° |
| 2026-04-27 14:43 | 43.53125 | -5.78503 | 41151 ft | 466 kts | 213° |
| 2026-04-27 14:43 | 43.47595 | -5.83161 | 41142 ft | 466 kts | 213° |
| 2026-04-27 14:44 | 43.42076 | -5.87800 | 41151 ft | 466 kts | 213° |
| 2026-04-27 14:44 | 43.36544 | -5.92440 | 41147 ft | 465 kts | 213° |
| 2026-04-27 14:45 | 43.31013 | -5.97069 | 41138 ft | 465 kts | 213° |
| 2026-04-27 14:45 | 43.25482 | -6.01689 | 41119 ft | 465 kts | 213° |
| 2026-04-27 14:46 | 43.19953 | -6.06298 | 41118 ft | 465 kts | 213° |
| 2026-04-27 14:46 | 43.14468 | -6.10859 | 41101 ft | 464 kts | 213° |
| 2026-04-27 14:47 | 43.08906 | -6.15471 | 41097 ft | 464 kts | 213° |
| 2026-04-27 14:47 | 43.03384 | -6.20043 | 41088 ft | 464 kts | 213° |
| 2026-04-27 14:48 | 42.97857 | -6.24611 | 41094 ft | 464 kts | 213° |
| 2026-04-27 14:48 | 42.89603 | -6.31414 | 41089 ft | 464 kts | 213° |
| 2026-04-27 14:49 | 42.84072 | -6.35959 | 41070 ft | 464 kts | 213° |
| 2026-04-27 14:49 | 42.78534 | -6.40502 | 41068 ft | 465 kts | 213° |
| 2026-04-27 14:50 | 42.72984 | -6.45043 | 41072 ft | 465 kts | 213° |
| 2026-04-27 14:50 | 42.67436 | -6.49574 | 41067 ft | 465 kts | 213° |
| 2026-04-27 14:51 | 42.62000 | -6.54004 | 41066 ft | 465 kts | 213° |
| 2026-04-27 14:51 | 42.57397 | -6.57748 | 41066 ft | 465 kts | 213° |
| 2026-04-27 14:52 | 42.51258 | -6.62732 | 41062 ft | 465 kts | 213° |
| 2026-04-27 14:52 | 42.45694 | -6.67237 | 41061 ft | 465 kts | 213° |
| 2026-04-27 14:53 | 42.40136 | -6.71731 | 41050 ft | 465 kts | 212° |
| 2026-04-27 14:53 | 42.34568 | -6.76223 | 41058 ft | 466 kts | 212° |
| 2026-04-27 14:54 | 42.29059 | -6.80657 | 41053 ft | 466 kts | 213° |
| 2026-04-27 14:54 | 42.23699 | -6.84963 | 41051 ft | 466 kts | 212° |
| 2026-04-27 14:55 | 42.18156 | -6.89406 | 41050 ft | 465 kts | 212° |
| 2026-04-27 14:55 | 42.12595 | -6.93855 | 41045 ft | 465 kts | 212° |
| 2026-04-27 14:56 | 42.07027 | -6.98301 | 41049 ft | 465 kts | 212° |
| 2026-04-27 14:56 | 42.01491 | -7.02712 | 41037 ft | 465 kts | 212° |
| 2026-04-27 14:57 | 41.95921 | -7.07141 | 41021 ft | 465 kts | 212° |
| 2026-04-27 14:57 | 41.90357 | -7.11556 | 41030 ft | 464 kts | 212° |
| 2026-04-27 14:58 | 41.84795 | -7.15960 | 41023 ft | 464 kts | 212° |
| 2026-04-27 14:58 | 41.79228 | -7.20359 | 41014 ft | 464 kts | 212° |
| 2026-04-27 14:59 | 41.73663 | -7.24747 | 41007 ft | 465 kts | 211° |
| 2026-04-27 14:59 | 41.68063 | -7.29099 | 41010 ft | 465 kts | 211° |
| 2026-04-27 15:00 | 41.62463 | -7.33440 | 41006 ft | 465 kts | 211° |
| 2026-04-27 15:00 | 41.56864 | -7.37777 | 41008 ft | 465 kts | 211° |
| 2026-04-27 15:01 | 41.51267 | -7.42105 | 40998 ft | 465 kts | 211° |
| 2026-04-27 15:01 | 41.45696 | -7.46403 | 40999 ft | 465 kts | 211° |
| 2026-04-27 15:02 | 41.40099 | -7.50714 | 40993 ft | 465 kts | 211° |
| 2026-04-27 15:02 | 41.34512 | -7.55009 | 40989 ft | 465 kts | 211° |
| 2026-04-27 15:03 | 41.28906 | -7.59310 | 40988 ft | 465 kts | 211° |
| 2026-04-27 15:03 | 41.23330 | -7.63579 | 40995 ft | 465 kts | 211° |
| 2026-04-27 15:04 | 41.20717 | -7.65576 | 40801 ft | 465 kts | 211° |
| 2026-04-27 15:04 | 41.17912 | -7.67718 | 40562 ft | 465 kts | 211° |
| 2026-04-27 15:04 | 41.15104 | -7.69860 | 40319 ft | 465 kts | 211° |
| 2026-04-27 15:04 | 41.12304 | -7.71994 | 40089 ft | 464 kts | 211° |
| 2026-04-27 15:05 | 41.09505 | -7.74125 | 39844 ft | 464 kts | 211° |
| 2026-04-27 15:05 | 41.06706 | -7.76254 | 39609 ft | 464 kts | 211° |
| 2026-04-27 15:05 | 41.03904 | -7.78385 | 39372 ft | 464 kts | 211° |
| 2026-04-27 15:05 | 41.01103 | -7.80511 | 39135 ft | 464 kts | 211° |
| 2026-04-27 15:06 | 40.98298 | -7.82638 | 38914 ft | 464 kts | 211° |
| 2026-04-27 15:06 | 40.95499 | -7.84759 | 38684 ft | 463 kts | 211° |
| 2026-04-27 15:06 | 40.92706 | -7.86873 | 38422 ft | 463 kts | 211° |
| 2026-04-27 15:06 | 40.89907 | -7.88990 | 38132 ft | 463 kts | 211° |
| 2026-04-27 15:07 | 40.87112 | -7.91101 | 37866 ft | 463 kts | 211° |
| 2026-04-27 15:07 | 40.84313 | -7.93214 | 37575 ft | 463 kts | 211° |
| 2026-04-27 15:07 | 40.81516 | -7.95323 | 37305 ft | 463 kts | 211° |
| 2026-04-27 15:07 | 40.78714 | -7.97434 | 37032 ft | 463 kts | 211° |
| 2026-04-27 15:08 | 40.75913 | -7.99542 | 36765 ft | 464 kts | 211° |
| 2026-04-27 15:08 | 40.73112 | -8.01647 | 36506 ft | 463 kts | 211° |
| 2026-04-27 15:08 | 40.70312 | -8.03750 | 36239 ft | 464 kts | 211° |
| 2026-04-27 15:08 | 40.67505 | -8.05856 | 35992 ft | 464 kts | 210° |
| 2026-04-27 15:09 | 40.64700 | -8.07959 | 35731 ft | 464 kts | 210° |
| 2026-04-27 15:09 | 40.61893 | -8.10061 | 35459 ft | 464 kts | 210° |
| 2026-04-27 15:09 | 40.59088 | -8.12159 | 35238 ft | 464 kts | 210° |
| 2026-04-27 15:09 | 40.56313 | -8.14233 | 34988 ft | 465 kts | 210° |
| 2026-04-27 15:10 | 40.53467 | -8.16358 | 34734 ft | 465 kts | 210° |
| 2026-04-27 15:10 | 40.50689 | -8.18430 | 34497 ft | 465 kts | 210° |
| 2026-04-27 15:10 | 40.47876 | -8.20526 | 34266 ft | 465 kts | 210° |
| 2026-04-27 15:10 | 40.45034 | -8.22642 | 34018 ft | 465 kts | 210° |
| 2026-04-27 15:11 | 40.42257 | -8.24708 | 33742 ft | 465 kts | 210° |
| 2026-04-27 15:11 | 40.39437 | -8.26803 | 33502 ft | 466 kts | 210° |
| 2026-04-27 15:11 | 40.36614 | -8.28898 | 33221 ft | 467 kts | 210° |
| 2026-04-27 15:11 | 40.33784 | -8.30997 | 32947 ft | 468 kts | 210° |
| 2026-04-27 15:12 | 40.30946 | -8.33100 | 32686 ft | 469 kts | 210° |
| 2026-04-27 15:12 | 40.28107 | -8.35200 | 32431 ft | 469 kts | 210° |
| 2026-04-27 15:12 | 40.25261 | -8.37305 | 32121 ft | 469 kts | 210° |
| 2026-04-27 15:12 | 40.22428 | -8.39397 | 31323 ft | 468 kts | 210° |
| 2026-04-27 15:13 | 40.19584 | -8.41496 | 30546 ft | 468 kts | 210° |
| 2026-04-27 15:13 | 40.16788 | -8.43556 | 30377 ft | 454 kts | 210° |
| 2026-04-27 15:13 | 40.14080 | -8.45551 | 30239 ft | 440 kts | 210° |
| 2026-04-27 15:13 | 40.11459 | -8.47479 | 30115 ft | 426 kts | 210° |
| 2026-04-27 15:14 | 40.08918 | -8.49347 | 29982 ft | 413 kts | 210° |
| 2026-04-27 15:14 | 40.06430 | -8.51155 | 29577 ft | 407 kts | 208° |
| 2026-04-27 15:14 | 40.03830 | -8.52585 | 29058 ft | 405 kts | 198° |
| 2026-04-27 15:14 | 40.01068 | -8.53271 | 28683 ft | 405 kts | 186° |
| 2026-04-27 15:15 | 39.98228 | -8.53257 | 28359 ft | 412 kts | 179° |
| 2026-04-27 15:15 | 39.95356 | -8.53020 | 28031 ft | 414 kts | 178° |
| 2026-04-27 15:15 | 39.92482 | -8.52763 | 27677 ft | 412 kts | 178° |
| 2026-04-27 15:15 | 39.89641 | -8.52514 | 27426 ft | 405 kts | 178° |
| 2026-04-27 15:16 | 39.86858 | -8.52274 | 27214 ft | 395 kts | 178° |
| 2026-04-27 15:16 | 39.85058 | -8.52120 | 27069 ft | 389 kts | 178° |
| 2026-04-27 15:16 | 39.81541 | -8.51824 | 26760 ft | 377 kts | 178° |
| 2026-04-27 15:16 | 39.78935 | -8.51611 | 26396 ft | 373 kts | 178° |
| 2026-04-27 15:17 | 39.76364 | -8.51757 | 25988 ft | 367 kts | 192° |
| 2026-04-27 15:17 | 39.73983 | -8.52820 | 25592 ft | 362 kts | 208° |
| 2026-04-27 15:17 | 39.71806 | -8.54443 | 25183 ft | 359 kts | 212° |
| 2026-04-27 15:17 | 39.70375 | -8.55586 | 24964 ft | 356 kts | 212° |
| 2026-04-27 15:18 | 39.68306 | -8.57241 | 24669 ft | 353 kts | 212° |
| 2026-04-27 15:18 | 39.66211 | -8.58908 | 24379 ft | 353 kts | 212° |
| 2026-04-27 15:18 | 39.64120 | -8.60562 | 24078 ft | 351 kts | 212° |
| 2026-04-27 15:18 | 39.62037 | -8.62205 | 23794 ft | 350 kts | 212° |
| 2026-04-27 15:19 | 39.59954 | -8.63845 | 23498 ft | 350 kts | 212° |
| 2026-04-27 15:19 | 39.57876 | -8.65478 | 23182 ft | 348 kts | 212° |
| 2026-04-27 15:19 | 39.55811 | -8.67099 | 22891 ft | 346 kts | 212° |
| 2026-04-27 15:19 | 39.53754 | -8.68712 | 22606 ft | 345 kts | 211° |
| 2026-04-27 15:20 | 39.51701 | -8.70321 | 22315 ft | 345 kts | 212° |
| 2026-04-27 15:20 | 39.49657 | -8.71922 | 22025 ft | 342 kts | 211° |
| 2026-04-27 15:20 | 39.47628 | -8.73510 | 21742 ft | 341 kts | 211° |
| 2026-04-27 15:20 | 39.45597 | -8.75097 | 21461 ft | 340 kts | 211° |
| 2026-04-27 15:21 | 39.43569 | -8.76681 | 21175 ft | 340 kts | 211° |
| 2026-04-27 15:21 | 39.41553 | -8.78255 | 20899 ft | 337 kts | 211° |
| 2026-04-27 15:21 | 39.39648 | -8.80003 | 20630 ft | 336 kts | 222° |
| 2026-04-27 15:21 | 39.38030 | -8.82172 | 20351 ft | 335 kts | 228° |
| 2026-04-27 15:22 | 39.36495 | -8.84438 | 20072 ft | 334 kts | 229° |
| 2026-04-27 15:22 | 39.34978 | -8.86692 | 19800 ft | 332 kts | 228° |
| 2026-04-27 15:22 | 39.33462 | -8.88934 | 19527 ft | 331 kts | 228° |
| 2026-04-27 15:22 | 39.31947 | -8.91166 | 19259 ft | 331 kts | 228° |
| 2026-04-27 15:23 | 39.30433 | -8.93392 | 18988 ft | 329 kts | 228° |
| 2026-04-27 15:23 | 39.28929 | -8.95600 | 18728 ft | 326 kts | 228° |
| 2026-04-27 15:23 | 39.27429 | -8.97797 | 18454 ft | 326 kts | 228° |
| 2026-04-27 15:23 | 39.25932 | -8.99989 | 18166 ft | 325 kts | 228° |
| 2026-04-27 15:24 | 39.24440 | -9.02173 | 17884 ft | 324 kts | 227° |
| 2026-04-27 15:24 | 39.22981 | -9.04306 | 17624 ft | 321 kts | 227° |
| 2026-04-27 15:24 | 39.21477 | -9.06503 | 17342 ft | 321 kts | 228° |
| 2026-04-27 15:24 | 39.19998 | -9.08662 | 17078 ft | 321 kts | 227° |
| 2026-04-27 15:25 | 39.18523 | -9.10814 | 16822 ft | 320 kts | 227° |
| 2026-04-27 15:25 | 39.17073 | -9.12928 | 16564 ft | 318 kts | 227° |
| 2026-04-27 15:25 | 39.15607 | -9.15062 | 16299 ft | 317 kts | 227° |
| 2026-04-27 15:25 | 39.14144 | -9.17191 | 16034 ft | 317 kts | 227° |
| 2026-04-27 15:26 | 39.12688 | -9.19310 | 15776 ft | 315 kts | 227° |
| 2026-04-27 15:26 | 39.11239 | -9.21418 | 15514 ft | 314 kts | 227° |
| 2026-04-27 15:26 | 39.09794 | -9.23515 | 15253 ft | 313 kts | 227° |
| 2026-04-27 15:26 | 39.08352 | -9.25609 | 15007 ft | 312 kts | 227° |
| 2026-04-27 15:27 | 39.06914 | -9.27696 | 14753 ft | 311 kts | 227° |
| 2026-04-27 15:27 | 39.05483 | -9.29772 | 14498 ft | 309 kts | 227° |
| 2026-04-27 15:27 | 39.04058 | -9.31836 | 14238 ft | 309 kts | 227° |
| 2026-04-27 15:27 | 39.02633 | -9.33899 | 13976 ft | 308 kts | 227° |
| 2026-04-27 15:28 | 39.01213 | -9.35953 | 13717 ft | 307 kts | 227° |
| 2026-04-27 15:28 | 38.99798 | -9.38000 | 13466 ft | 306 kts | 227° |
| 2026-04-27 15:28 | 38.98385 | -9.40042 | 13205 ft | 306 kts | 227° |
| 2026-04-27 15:28 | 38.96971 | -9.42082 | 12960 ft | 306 kts | 227° |
| 2026-04-27 15:29 | 38.95560 | -9.44119 | 12698 ft | 305 kts | 227° |
| 2026-04-27 15:29 | 38.94164 | -9.46133 | 12451 ft | 305 kts | 227° |
| 2026-04-27 15:29 | 38.92760 | -9.48156 | 12251 ft | 299 kts | 227° |
| 2026-04-27 15:29 | 38.91399 | -9.50119 | 12051 ft | 290 kts | 227° |
| 2026-04-27 15:30 | 38.90068 | -9.52035 | 11796 ft | 283 kts | 227° |
| 2026-04-27 15:30 | 38.88675 | -9.53780 | 11551 ft | 278 kts | 214° |
| 2026-04-27 15:30 | 38.86928 | -9.54745 | 11309 ft | 273 kts | 187° |
| 2026-04-27 15:30 | 38.85043 | -9.54918 | 11044 ft | 271 kts | 179° |
| 2026-04-27 15:31 | 38.83154 | -9.54941 | 10817 ft | 271 kts | 178° |
| 2026-04-27 15:31 | 38.81267 | -9.54958 | 10587 ft | 271 kts | 179° |
| 2026-04-27 15:31 | 38.79404 | -9.54985 | 10367 ft | 270 kts | 179° |
| 2026-04-27 15:31 | 38.77522 | -9.55019 | 10144 ft | 270 kts | 178° |
| 2026-04-27 15:32 | 38.75651 | -9.55055 | 9931 ft | 269 kts | 178° |
| 2026-04-27 15:32 | 38.73780 | -9.55093 | 9686 ft | 268 kts | 178° |
| 2026-04-27 15:32 | 38.71911 | -9.55132 | 9458 ft | 269 kts | 178° |
| 2026-04-27 15:32 | 38.70039 | -9.55171 | 9237 ft | 269 kts | 178° |
| 2026-04-27 15:33 | 38.68166 | -9.55212 | 9019 ft | 268 kts | 178° |
| 2026-04-27 15:33 | 38.66304 | -9.55251 | 8790 ft | 267 kts | 179° |
| 2026-04-27 15:33 | 38.64448 | -9.55292 | 8575 ft | 267 kts | 179° |
| 2026-04-27 15:33 | 38.62595 | -9.55334 | 8347 ft | 266 kts | 179° |
| 2026-04-27 15:34 | 38.60780 | -9.55374 | 8180 ft | 257 kts | 178° |
| 2026-04-27 15:34 | 38.59016 | -9.55279 | 7984 ft | 252 kts | 169° |
| 2026-04-27 15:34 | 38.57292 | -9.54893 | 7969 ft | 252 kts | 166° |
| 2026-04-27 15:34 | 38.55576 | -9.54453 | 7968 ft | 251 kts | 166° |
| 2026-04-27 15:35 | 38.53862 | -9.54010 | 7963 ft | 251 kts | 166° |
| 2026-04-27 15:35 | 38.52149 | -9.53573 | 7960 ft | 251 kts | 166° |
| 2026-04-27 15:35 | 38.50442 | -9.53103 | 7956 ft | 250 kts | 162° |
| 2026-04-27 15:35 | 38.48891 | -9.52213 | 7963 ft | 246 kts | 145° |
| 2026-04-27 15:36 | 38.47455 | -9.51029 | 7962 ft | 246 kts | 143° |
| 2026-04-27 15:36 | 38.46035 | -9.49804 | 7967 ft | 247 kts | 143° |
| 2026-04-27 15:36 | 38.44608 | -9.48576 | 7963 ft | 247 kts | 143° |
| 2026-04-27 15:36 | 38.43182 | -9.47358 | 7961 ft | 246 kts | 143° |
| 2026-04-27 15:37 | 38.41820 | -9.46052 | 7959 ft | 244 kts | 133° |
| 2026-04-27 15:37 | 38.40759 | -9.44375 | 7963 ft | 242 kts | 122° |
| 2026-04-27 15:37 | 38.39819 | -9.42596 | 7962 ft | 242 kts | 121° |
| 2026-04-27 15:37 | 38.38889 | -9.40806 | 7963 ft | 242 kts | 121° |
| 2026-04-27 15:38 | 38.37956 | -9.39018 | 7962 ft | 242 kts | 121° |
| 2026-04-27 15:38 | 38.37021 | -9.37234 | 7957 ft | 242 kts | 121° |
| 2026-04-27 15:38 | 38.36243 | -9.35347 | 7960 ft | 240 kts | 107° |
| 2026-04-27 15:38 | 38.35831 | -9.33297 | 7958 ft | 239 kts | 100° |
| 2026-04-27 15:39 | 38.35509 | -9.31220 | 7956 ft | 239 kts | 99° |
| 2026-04-27 15:39 | 38.35190 | -9.29136 | 7956 ft | 239 kts | 99° |
| 2026-04-27 15:39 | 38.34866 | -9.27052 | 7954 ft | 239 kts | 100° |
| 2026-04-27 15:39 | 38.34545 | -9.24977 | 7958 ft | 239 kts | 99° |
| 2026-04-27 15:40 | 38.34468 | -9.22875 | 7948 ft | 238 kts | 83° |
| 2026-04-27 15:40 | 38.34727 | -9.20824 | 7947 ft | 238 kts | 78° |
| 2026-04-27 15:40 | 38.35054 | -9.18762 | 7948 ft | 238 kts | 78° |
| 2026-04-27 15:40 | 38.35384 | -9.16701 | 7949 ft | 238 kts | 78° |
| 2026-04-27 15:41 | 38.35948 | -9.14728 | 7917 ft | 238 kts | 60° |
| 2026-04-27 15:41 | 38.37091 | -9.13230 | 7689 ft | 239 kts | 32° |
| 2026-04-27 15:41 | 38.38675 | -9.12619 | 7469 ft | 243 kts | 5° |
| 2026-04-27 15:41 | 38.40341 | -9.13053 | 7255 ft | 249 kts | 336° |
| 2026-04-27 15:42 | 38.41656 | -9.14490 | 7027 ft | 254 kts | 306° |
| 2026-04-27 15:42 | 38.42485 | -9.16481 | 6834 ft | 255 kts | 298° |
| 2026-04-27 15:42 | 38.43488 | -9.18322 | 6608 ft | 252 kts | 318° |
| 2026-04-27 15:42 | 38.44808 | -9.19767 | 6379 ft | 249 kts | 324° |
| 2026-04-27 15:43 | 38.46160 | -9.21088 | 6249 ft | 240 kts | 326° |
| 2026-04-27 15:43 | 38.47465 | -9.22348 | 6108 ft | 230 kts | 326° |
| 2026-04-27 15:43 | 38.48717 | -9.23557 | 5964 ft | 221 kts | 326° |
| 2026-04-27 15:43 | 38.49930 | -9.24728 | 5767 ft | 216 kts | 326° |
| 2026-04-27 15:44 | 38.51115 | -9.25874 | 5528 ft | 212 kts | 326° |
| 2026-04-27 15:44 | 38.52286 | -9.27008 | 5290 ft | 210 kts | 326° |
| 2026-04-27 15:44 | 38.53451 | -9.28137 | 5117 ft | 210 kts | 326° |
| 2026-04-27 15:44 | 38.54623 | -9.29250 | 4920 ft | 207 kts | 329° |
| 2026-04-27 15:45 | 38.55949 | -9.29847 | 4786 ft | 201 kts | 2° |
| 2026-04-27 15:45 | 38.57205 | -9.29276 | 4764 ft | 196 kts | 41° |
| 2026-04-27 15:45 | 38.57950 | -9.27929 | 4567 ft | 188 kts | 66° |
| 2026-04-27 15:45 | 38.58464 | -9.26331 | 4406 ft | 193 kts | 69° |
| 2026-04-27 15:46 | 38.58947 | -9.24761 | 4247 ft | 188 kts | 68° |
| 2026-04-27 15:46 | 38.59768 | -9.23494 | 3908 ft | 187 kts | 37° |
| 2026-04-27 15:46 | 38.60921 | -9.22735 | 3630 ft | 187 kts | 22° |
| 2026-04-27 15:46 | 38.62127 | -9.22147 | 3358 ft | 184 kts | 22° |
| 2026-04-27 15:47 | 38.63293 | -9.21518 | 3115 ft | 180 kts | 23° |
| 2026-04-27 15:47 | 38.64432 | -9.20906 | 2868 ft | 175 kts | 22° |
| 2026-04-27 15:47 | 38.65534 | -9.20322 | 2652 ft | 168 kts | 22° |
| 2026-04-27 15:47 | 38.66589 | -9.19759 | 2439 ft | 160 kts | 22° |
| 2026-04-27 15:48 | 38.67591 | -9.19224 | 2237 ft | 152 kts | 21° |
| 2026-04-27 15:48 | 38.68551 | -9.18713 | 2036 ft | 146 kts | 21° |
| 2026-04-27 15:48 | 38.69465 | -9.18224 | 1837 ft | 139 kts | 20° |
| 2026-04-27 15:49 | 38.71246 | -9.17274 | 1486 ft | 140 kts | 19° |
| 2026-04-27 15:49 | 38.72144 | -9.16794 | 1314 ft | 141 kts | 20° |
| 2026-04-27 15:49 | 38.73038 | -9.16300 | 1085 ft | 139 kts | 20° |
| 2026-04-27 15:49 | 38.73943 | -9.15812 | 942 ft | 141 kts | 17° |
| 2026-04-27 15:50 | 38.74848 | -9.15340 | 793 ft | 142 kts | 17° |
| 2026-04-27 15:50 | 38.75767 | -9.14853 | 580 ft | 145 kts | 19° |
| 2026-04-27 15:50 | 38.76732 | -9.14345 | 386 ft | 149 kts | 20° |
| 2026-04-27 15:50 | 38.77593 | -9.13875 | 373 ft | 134 kts | 19° |
| 2026-04-27 15:51 | 38.78344 | -9.13484 | 373 ft | 83 kts | 23° |
| 2026-04-27 15:51 | 38.78530 | -9.13386 | 373 ft | 4 kts | 50° |
| 2026-04-27 15:51 | 38.78543 | -9.13330 | 366 ft | 10 kts | 85° |
| 2026-04-27 15:51 | 38.78509 | -9.13257 | 370 ft | 10 kts | 144° |
| 2026-04-27 15:52 | 38.78436 | -9.13220 | 372 ft | 13 kts | 171° |
| 2026-04-27 15:52 | 38.78346 | -9.13250 | 370 ft | 14 kts | 202° |
| 2026-04-27 15:52 | 38.78245 | -9.13302 | 371 ft | 17 kts | 202° |
| 2026-04-27 15:52 | 38.78125 | -9.13364 | 370 ft | 20 kts | 202° |
| 2026-04-27 15:53 | 38.77985 | -9.13408 | 365 ft | 23 kts | 169° |
| 2026-04-27 15:53 | 38.77809 | -9.13361 | 354 ft | 29 kts | 168° |
| 2026-04-27 15:53 | 38.77595 | -9.13319 | 350 ft | 27 kts | 176° |
| 2026-04-27 15:53 | 38.77572 | -9.13317 | 350 ft | 0 kts | 174° |
| 2026-04-27 15:54 | 38.77548 | -9.13305 | 355 ft | 12 kts | 150° |
| 2026-04-27 15:54 | 38.77537 | -9.13276 | 355 ft | 4 kts | 99° |
| 2026-04-27 15:54 | 38.77542 | -9.13222 | 352 ft | 8 kts | 77° |
| 2026-04-27 15:54 | 38.77547 | -9.13191 | 354 ft | 0 kts | 77° |